createdAt,value
2023-01-13T00:00:39.417Z,97630.69
2023-01-13T00:04:42.323Z,97617.03
2023-01-13T00:08:45.466Z,97609.97
2023-01-13T00:12:48.521Z,97619.69
2023-01-13T00:16:52.820Z,97601.66
2023-01-13T00:21:02.850Z,97592.56
2023-01-13T00:25:06.846Z,97586.00
2023-01-13T00:29:09.833Z,97585.06
2023-01-13T00:33:14.430Z,97575.81
2023-01-13T00:37:17.607Z,97576.25
2023-01-13T00:41:22.914Z,97579.69
2023-01-13T00:45:26.059Z,97573.00
2023-01-13T00:49:30.572Z,97571.53
2023-01-13T00:53:36.322Z,97586.22
2023-01-13T00:57:40.272Z,97583.84
2023-01-13T01:01:43.519Z,97583.91
2023-01-13T01:05:48.565Z,97578.94
2023-01-13T01:09:51.455Z,97581.22
2023-01-13T01:13:56.128Z,97581.88
2023-01-13T01:17:59.016Z,97591.41
2023-01-13T01:22:03.373Z,97583.50
2023-01-13T01:26:08.622Z,97580.75
2023-01-13T01:30:12.967Z,97575.91
2023-01-13T01:34:16.070Z,97565.53
2023-01-13T01:38:21.469Z,97563.97
2023-01-13T01:42:41.981Z,97567.34
2023-01-13T01:46:47.357Z,97560.88
2023-01-13T01:50:52.741Z,97566.22
2023-01-13T01:55:01.981Z,97554.50
2023-01-13T01:59:04.919Z,97550.41
2023-01-13T02:03:10.320Z,97558.00
2023-01-13T02:07:13.359Z,97551.50
2023-01-13T02:11:54.161Z,97545.78
2023-01-13T02:16:08.815Z,97553.25
2023-01-13T02:20:39.277Z,97547.13
2023-01-13T02:25:13.330Z,97540.56
2023-01-13T02:29:51.951Z,97554.06
2023-01-13T02:34:05.701Z,97548.19
2023-01-13T02:38:11.749Z,97539.88
2023-01-13T02:42:36.268Z,97539.06
2023-01-13T02:46:58.563Z,97536.31
2023-01-13T02:51:07.349Z,97536.81
2023-01-13T02:55:15.365Z,97537.31
2023-01-13T02:59:21.418Z,97535.69
2023-01-13T03:03:26.311Z,97533.75
2023-01-13T03:08:01.825Z,97525.81
2023-01-13T03:12:16.961Z,97518.66
2023-01-13T03:16:31.296Z,97518.69
2023-01-13T03:20:43.965Z,97520.69
2023-01-13T03:24:52.033Z,97517.09
2023-01-13T03:29:02.987Z,97515.97
2023-01-13T03:33:11.728Z,97510.75
2023-01-13T03:37:20.640Z,97517.78
2023-01-13T03:41:28.317Z,97508.66
2023-01-13T03:45:34.941Z,97513.03
2023-01-13T03:49:42.398Z,97505.69
2023-01-13T03:53:49.836Z,97494.59
2023-01-13T03:57:59.874Z,97498.88
2023-01-13T04:02:08.395Z,97495.13
2023-01-13T04:06:17.393Z,97492.72
2023-01-13T04:10:26.833Z,97486.88
2023-01-13T04:14:30.890Z,97484.38
2023-01-13T04:18:34.089Z,97479.63
2023-01-13T04:22:37.561Z,97484.63
2023-01-13T04:26:42.197Z,97473.72
2023-01-13T04:30:46.406Z,97464.63
2023-01-13T04:34:49.458Z,97463.47
2023-01-13T04:38:52.707Z,97458.75
2023-01-13T04:42:57.651Z,97462.31
2023-01-13T04:47:01.177Z,97461.63
2023-01-13T04:51:04.172Z,97466.19
2023-01-13T04:55:08.731Z,97455.13
2023-01-13T04:59:14.562Z,97451.06
2023-01-13T05:03:17.924Z,97454.91
2023-01-13T05:07:23.326Z,97450.84
2023-01-13T05:11:43.887Z,97452.06
2023-01-13T05:16:17.549Z,97441.88
2023-01-13T05:20:20.948Z,97452.69
2023-01-13T05:24:41.623Z,97451.06
2023-01-13T05:28:44.532Z,97453.97
2023-01-13T05:32:49.522Z,97459.00
2023-01-13T05:36:52.723Z,97445.34
2023-01-13T05:41:13.324Z,97441.34
2023-01-13T05:45:16.583Z,97441.06
2023-01-13T05:49:21.313Z,97444.31
2023-01-13T05:53:25.800Z,97445.16
2023-01-13T05:57:29.026Z,97441.06
2023-01-13T06:01:32.144Z,97427.44
2023-01-13T06:05:36.783Z,97430.16
2023-01-13T06:09:39.872Z,97438.41
2023-01-13T06:13:43.175Z,97442.41
2023-01-13T06:17:46.535Z,97440.28
2023-01-13T06:21:51.154Z,97445.09
2023-01-13T06:26:02.307Z,97440.53
2023-01-13T06:30:06.182Z,97440.31
2023-01-13T06:34:13.624Z,97424.69
2023-01-13T06:38:21.471Z,97425.44
2023-01-13T06:42:41.714Z,97412.56
2023-01-13T06:46:44.749Z,97416.06
2023-01-13T06:50:47.948Z,97425.13
2023-01-13T06:54:52.455Z,97433.34
2023-01-13T06:58:55.404Z,97431.19
2023-01-13T07:03:08.091Z,97447.88
2023-01-13T07:07:12.693Z,97454.47
2023-01-13T07:11:17.324Z,97436.47
2023-01-13T07:15:20.670Z,97444.38
2023-01-13T07:19:25.052Z,97447.94
2023-01-13T07:23:29.669Z,97451.50
2023-01-13T07:27:34.229Z,97450.69
2023-01-13T07:31:37.545Z,97457.78
2023-01-13T07:35:40.548Z,97453.28
2023-01-13T07:39:45.462Z,97467.88
2023-01-13T07:43:49.951Z,97456.25
2023-01-13T07:47:54.561Z,97456.63
2023-01-13T07:51:57.616Z,97458.44
2023-01-13T07:56:02.365Z,97461.44
2023-01-13T08:00:08.668Z,97462.59
2023-01-13T08:04:11.722Z,97456.16
2023-01-13T08:08:14.676Z,97458.00
2023-01-13T08:12:35.141Z,97452.22
2023-01-13T08:16:40.105Z,97456.63
2023-01-13T08:20:43.345Z,97453.16
2023-01-13T08:24:46.573Z,97457.44
2023-01-13T08:28:49.874Z,97464.63
2023-01-13T08:32:54.668Z,97463.03
2023-01-13T08:36:57.747Z,97455.91
2023-01-13T08:41:00.856Z,97453.66
2023-01-13T08:45:04.097Z,97442.03
2023-01-13T08:49:08.695Z,97438.81
2023-01-13T08:53:11.936Z,97445.34
2023-01-13T08:57:16.237Z,97446.66
2023-01-13T09:01:23.501Z,97451.22
2023-01-13T09:05:28.040Z,97465.06
2023-01-13T09:09:31.210Z,97474.41
2023-01-13T09:13:34.078Z,97466.16
2023-01-13T09:17:37.044Z,97449.81
2023-01-13T09:21:41.747Z,97456.69
2023-01-13T09:25:44.935Z,97448.91
2023-01-13T09:29:48.363Z,97450.09
2023-01-13T09:34:09.102Z,97445.38
2023-01-13T09:38:13.458Z,97440.53
2023-01-13T09:42:40.860Z,97436.59
2023-01-13T09:46:48.875Z,97441.16
2023-01-13T09:51:02.558Z,97449.00
2023-01-13T09:55:14.560Z,97440.84
2023-01-13T09:59:19.770Z,97429.91
2023-01-13T10:03:26.446Z,97420.94
2023-01-13T10:07:33.429Z,97419.31
2023-01-13T10:12:08.259Z,97412.72
2023-01-13T10:16:27.771Z,97407.13
2023-01-13T10:20:36.412Z,97400.22
2023-01-13T10:25:04.455Z,97402.41
2023-01-13T10:29:21.717Z,97394.66
2023-01-13T10:33:28.555Z,97403.81
2023-01-13T10:37:32.141Z,97397.66
2023-01-13T10:41:36.384Z,97389.06
2023-01-13T10:45:40.985Z,97384.03
2023-01-13T10:49:43.908Z,97390.34
2023-01-13T10:53:52.203Z,97386.47
2023-01-13T10:57:55.576Z,97390.44
2023-01-13T11:02:13.177Z,97389.16
2023-01-13T11:06:29.558Z,97392.75
2023-01-13T11:10:34.449Z,97377.00
2023-01-13T11:14:41.902Z,97380.22
2023-01-13T11:19:02.652Z,97381.94
2023-01-13T11:23:15.939Z,97389.00
2023-01-13T11:27:23.416Z,97387.94
2023-01-13T11:31:31.385Z,97403.00
2023-01-13T11:35:41.729Z,97412.03
2023-01-13T11:39:53.905Z,97416.63
2023-01-13T11:44:06.044Z,97423.09
2023-01-13T11:48:15.730Z,97430.41
2023-01-13T11:52:24.708Z,97441.41
2023-01-13T11:56:50.431Z,97443.31
2023-01-13T12:01:04.147Z,97420.84
2023-01-13T12:05:17.032Z,97406.13
2023-01-13T12:09:28.396Z,97422.13
2023-01-13T12:13:42.210Z,97389.25
2023-01-13T12:17:59.202Z,97369.16
2023-01-13T12:22:12.587Z,97351.38
2023-01-13T12:26:20.234Z,97317.16
2023-01-13T12:30:28.717Z,97321.88
2023-01-13T12:34:48.683Z,97323.84
2023-01-13T12:38:58.035Z,97323.84
2023-01-13T12:43:48.744Z,97335.34
2023-01-13T12:47:52.224Z,97333.88
2023-01-13T12:52:07.941Z,97337.56
2023-01-13T12:56:42.576Z,97327.63
2023-01-13T13:01:01.982Z,97326.03
2023-01-13T13:05:57.140Z,97325.84
2023-01-13T13:10:06.078Z,97318.03
2023-01-13T13:14:13.010Z,97319.13
2023-01-13T13:18:28.605Z,97325.63
2023-01-13T13:22:46.238Z,97316.31
2023-01-13T13:26:49.799Z,97315.97
2023-01-13T13:31:11.312Z,97311.19
2023-01-13T13:35:30.011Z,97324.19
2023-01-13T13:39:51.789Z,97319.91
2023-01-13T13:44:12.546Z,97335.50
2023-01-13T13:48:25.537Z,97333.38
2023-01-13T13:52:38.075Z,97347.22
2023-01-13T13:56:45.110Z,97357.50
2023-01-13T14:00:50.517Z,97366.47
2023-01-13T14:05:08.927Z,97379.84
2023-01-13T14:09:19.049Z,97406.00
2023-01-13T14:13:25.200Z,97404.75
2023-01-13T14:17:30.124Z,97406.41
2023-01-13T14:21:33.608Z,97400.47
2023-01-13T14:25:40.787Z,97401.19
2023-01-13T14:29:44.346Z,97410.50
2023-01-13T14:33:48.927Z,97400.44
2023-01-13T14:37:54.599Z,97398.50
2023-01-13T14:41:58.863Z,97382.22
2023-01-13T14:46:03.995Z,97380.78
2023-01-13T14:50:18.729Z,97376.69
2023-01-13T14:54:48.017Z,97371.44
2023-01-13T14:58:52.584Z,97365.75
2023-01-13T15:03:07.996Z,97370.78
2023-01-13T15:07:24.625Z,97365.56
2023-01-13T15:11:30.104Z,97370.50
2023-01-13T15:15:36.658Z,97374.38
2023-01-13T15:19:39.900Z,97374.72
2023-01-13T15:23:43.642Z,97371.97
2023-01-13T15:27:48.204Z,97389.22
2023-01-13T15:31:52.650Z,97393.47
2023-01-13T15:35:56.424Z,97385.81
2023-01-13T15:39:59.353Z,97382.22
2023-01-13T15:44:19.849Z,97385.81
2023-01-13T15:48:26.765Z,97400.31
2023-01-13T15:52:29.668Z,97404.03
2023-01-13T15:56:36.652Z,97416.69
2023-01-13T16:00:39.905Z,97421.59
2023-01-13T16:04:44.863Z,97433.44
2023-01-13T16:08:48.529Z,97442.75
2023-01-13T16:12:51.700Z,97440.16
2023-01-13T16:16:55.008Z,97443.72
2023-01-13T16:20:59.305Z,97439.63
2023-01-13T16:25:02.268Z,97476.56
2023-01-13T16:29:05.981Z,97586.06
2023-01-13T16:33:09.018Z,97585.41
2023-01-13T16:37:20.974Z,97582.50
2023-01-13T16:41:25.270Z,97616.31
2023-01-13T16:45:29.376Z,97643.59
2023-01-13T16:49:32.261Z,97651.31
2023-01-13T16:53:36.807Z,97633.31
2023-01-13T16:57:39.913Z,97635.19
2023-01-13T17:01:45.145Z,97641.91
2023-01-13T17:05:48.984Z,97654.16
2023-01-13T17:09:53.711Z,97662.66
2023-01-13T17:13:56.907Z,97668.66
2023-01-13T17:17:59.911Z,97686.25
2023-01-13T17:22:03.118Z,97702.75
2023-01-13T17:26:08.477Z,97701.00
2023-01-13T17:30:14.599Z,97723.09
2023-01-13T17:34:17.802Z,97696.19
2023-01-13T17:38:21.887Z,97708.22
2023-01-13T17:42:28.955Z,97720.22
2023-01-13T17:46:32.052Z,97726.38
2023-01-13T17:50:35.240Z,97746.34
2023-01-13T17:54:40.180Z,97749.00
2023-01-13T17:58:45.561Z,97772.66
2023-01-13T18:02:48.919Z,97777.47
2023-01-13T18:06:51.891Z,97787.63
2023-01-13T18:10:57.656Z,97785.59
2023-01-13T18:15:02.153Z,97795.81
2023-01-13T18:19:23.162Z,97799.09
2023-01-13T18:23:43.571Z,97788.19
2023-01-13T18:27:47.304Z,97815.25
2023-01-13T18:31:52.559Z,97816.50
2023-01-13T18:35:55.925Z,97832.22
2023-01-13T18:39:58.837Z,97837.88
2023-01-13T18:44:02.063Z,97826.25
2023-01-13T18:48:09.240Z,97828.97
2023-01-13T18:52:12.625Z,97838.56
2023-01-13T18:56:16.173Z,97832.13
2023-01-13T19:00:21.941Z,97826.94
2023-01-13T19:04:27.142Z,97835.13
2023-01-13T19:08:31.167Z,97827.34
2023-01-13T19:12:34.409Z,97842.09
2023-01-13T19:16:37.347Z,97839.91
2023-01-13T19:20:41.881Z,97846.50
2023-01-13T19:24:44.987Z,97861.13
2023-01-13T19:28:48.818Z,97869.88
2023-01-13T19:32:53.736Z,97873.41
2023-01-13T19:36:58.224Z,97875.31
2023-01-13T19:41:05.012Z,97869.72
2023-01-13T19:45:26.787Z,97884.44
2023-01-13T19:49:30.134Z,97885.56
2023-01-13T19:53:34.553Z,97871.09
2023-01-13T19:57:39.472Z,97869.19
2023-01-13T20:01:42.961Z,97858.81
2023-01-13T20:05:46.763Z,97867.69
2023-01-13T20:09:51.352Z,97877.38
2023-01-13T20:13:54.572Z,97868.63
2023-01-13T20:17:58.877Z,97872.88
2023-01-13T20:22:02.149Z,97888.00
2023-01-13T20:26:08.795Z,97887.88
2023-01-13T20:30:15.243Z,97862.88
2023-01-13T20:34:19.654Z,97877.91
2023-01-13T20:38:22.883Z,97878.19
2023-01-13T20:42:39.904Z,97884.47
2023-01-13T20:46:44.877Z,97872.00
2023-01-13T20:50:53.478Z,97864.22
2023-01-13T20:54:56.609Z,97860.41
2023-01-13T20:59:01.423Z,97873.00
2023-01-13T21:03:04.344Z,97867.81
2023-01-13T21:07:08.376Z,97864.97
2023-01-13T21:11:15.185Z,97878.19
2023-01-13T21:15:22.128Z,97883.66
2023-01-13T21:19:25.306Z,97861.81
2023-01-13T21:23:28.292Z,97873.56
2023-01-13T21:27:31.875Z,97871.38
2023-01-13T21:31:36.399Z,97886.09
2023-01-13T21:35:40.436Z,97880.38
2023-01-13T21:39:44.336Z,97883.91
2023-01-13T21:44:04.751Z,97889.38
2023-01-13T21:48:09.700Z,97889.66
2023-01-13T21:52:13.545Z,97892.66
2023-01-13T21:56:16.816Z,97892.22
2023-01-13T22:00:21.484Z,97889.50
2023-01-13T22:04:25.970Z,97909.38
2023-01-13T22:08:29.323Z,97912.22
2023-01-13T22:12:32.841Z,97922.66
2023-01-13T22:16:39.425Z,97925.44
2023-01-13T22:20:43.945Z,97936.44
2023-01-13T22:24:49.761Z,97942.28
2023-01-13T22:28:53.107Z,97941.28
2023-01-13T22:32:56.221Z,97928.41
2023-01-13T22:37:01.317Z,97940.84
2023-01-13T22:41:07.715Z,97938.81
2023-01-13T22:45:13.149Z,97937.63
2023-01-13T22:49:17.466Z,97931.09
2023-01-13T22:53:22.707Z,97926.22
2023-01-13T22:57:27.353Z,97923.69
2023-01-13T23:01:33.182Z,97934.75
2023-01-13T23:05:36.283Z,97939.22
2023-01-13T23:09:40.882Z,97949.38
2023-01-13T23:13:44.935Z,97956.41
2023-01-13T23:17:50.282Z,97955.69
2023-01-13T23:21:53.872Z,97968.09
2023-01-13T23:25:58.296Z,97964.50
2023-01-13T23:30:01.453Z,97960.91
2023-01-13T23:34:04.646Z,97965.03
2023-01-13T23:38:07.616Z,97975.94
2023-01-13T23:42:12.120Z,97989.44
2023-01-13T23:46:16.975Z,97985.06
2023-01-13T23:50:20.193Z,97986.25
2023-01-13T23:54:23.291Z,97999.28
2023-01-13T23:58:27.675Z,98006.97
